Time;durP1;ratioP1;P1;durP2;ratioP2;P2;SDS_P1;SDS_P2;PMS_P1;PMS_P2;Temp;Humidity;BMP_temperature;BMP_pressure;BME280_temperature;BME280_humidity;BME280_pressure;Samples;Min_cycle;Max_cycle;Signal;HPM_P1;HPM_P2
2021/04/29 00:01:51;;;;;;;27.37;14.28;;;;;;;8.80;48.11;99534.20;1757950;80;21128;-69
2021/04/29 00:04:17;;;;;;;28.02;13.15;;;;;;;8.80;48.21;99536.36;1757146;81;21196;-69
2021/04/29 00:06:44;;;;;;;22.77;13.78;;;;;;;8.77;48.30;99537.22;1759120;80;21156;-69
2021/04/29 00:09:10;;;;;;;26.35;13.53;;;;;;;8.74;48.41;99529.61;1767223;80;21203;-69
2021/04/29 00:11:37;;;;;;;23.47;12.47;;;;;;;8.73;48.49;99530.61;1769347;80;21151;-70
2021/04/29 00:14:04;;;;;;;27.58;13.43;;;;;;;8.69;48.57;99526.69;1792270;79;21136;-69
2021/04/29 00:16:31;;;;;;;26.30;12.20;;;;;;;8.67;48.70;99524.69;1789253;79;21361;-70
2021/04/29 00:18:57;;;;;;;21.45;12.73;;;;;;;8.63;48.79;99519.41;1790111;79;21151;-69
2021/04/29 00:21:23;;;;;;;24.00;13.18;;;;;;;8.62;48.88;99525.74;1791022;79;21546;-69
2021/04/29 00:23:49;;;;;;;25.52;13.58;;;;;;;8.59;48.95;99523.42;1797438;79;21163;-69
2021/04/29 00:26:16;;;;;;;22.80;12.68;;;;;;;8.52;49.01;99513.52;1799865;79;21119;-69
2021/04/29 00:28:42;;;;;;;21.30;12.47;;;;;;;8.52;49.07;99524.14;1800154;79;21397;-69
2021/04/29 00:31:08;;;;;;;25.15;13.10;;;;;;;8.50;49.15;99523.50;1794593;79;21148;-69
2021/04/29 00:33:34;;;;;;;25.48;12.90;;;;;;;8.48;49.21;99524.17;1772794;79;21116;-69
2021/04/29 00:36:01;;;;;;;26.45;13.13;;;;;;;8.46;49.30;99518.72;1799018;79;21099;-69
2021/04/29 00:38:28;;;;;;;24.72;12.98;;;;;;;8.45;49.39;99517.88;1799666;79;21166;-69
2021/04/29 00:40:55;;;;;;;28.20;12.53;;;;;;;8.44;49.49;99514.89;1798134;79;21937;-69
2021/04/29 00:43:21;;;;;;;25.52;12.58;;;;;;;8.40;49.55;99513.63;1769798;79;21139;-69
2021/04/29 00:45:47;;;;;;;20.77;12.13;;;;;;;8.37;49.61;99514.48;1794900;79;21156;-69
2021/04/29 00:48:14;;;;;;;29.00;12.20;;;;;;;8.32;49.67;99516.33;1799650;79;21135;-69
2021/04/29 00:50:40;;;;;;;25.52;12.93;;;;;;;8.29;49.74;99519.34;1785647;79;21541;-70
2021/04/29 00:53:07;;;;;;;22.07;12.75;;;;;;;8.27;49.82;99521.30;1786958;79;21185;-69
2021/04/29 00:55:34;;;;;;;27.65;14.90;;;;;;;8.24;49.89;99522.98;1787109;80;21116;-69
2021/04/29 00:58:01;;;;;;;28.70;13.60;;;;;;;8.19;49.95;99520.05;1773650;79;21152;-69
2021/04/29 01:00:28;;;;;;;26.80;13.08;;;;;;;8.16;50.01;99517.75;1791880;79;21103;-69
2021/04/29 01:03:01;;;;;;;26.95;12.78;;;;;;;8.12;50.06;99515.61;1800179;79;21576;-69
2021/04/29 01:05:31;;;;;;;25.85;12.68;;;;;;;8.11;50.15;99511.30;1799873;79;21146;-69
2021/04/29 01:08:06;;;;;;;26.23;13.68;;;;;;;8.06;50.21;99517.12;1797925;79;21163;-69
2021/04/29 01:10:36;;;;;;;26.62;13.13;;;;;;;8.04;50.26;99519.14;1798511;79;21135;-69
2021/04/29 01:13:12;;;;;;;25.12;13.43;;;;;;;8.01;50.33;99516.84;1768168;81;21135;-70
2021/04/29 01:15:42;;;;;;;27.27;12.98;;;;;;;7.99;50.37;99515.67;1758338;81;21128;-69
2021/04/29 01:18:10;;;;;;;26.87;14.95;;;;;;;7.98;50.44;99511.88;1756221;81;21225;-69
2021/04/29 01:20:59;;;;;;;27.80;14.15;;;;;;;7.95;50.52;99517.55;1779041;80;21148;-69
2021/04/29 01:23:30;;;;;;;27.40;13.85;;;;;;;7.92;50.58;99512.56;1750887;80;21581;-69
2021/04/29 01:25:59;;;;;;;26.27;13.72;;;;;;;7.89;50.65;99503.63;1748481;80;21148;-69
2021/04/29 01:28:27;;;;;;;29.80;14.87;;;;;;;7.85;50.73;99500.98;1752860;80;21041;-69
2021/04/29 01:30:55;;;;;;;24.90;13.53;;;;;;;7.82;50.77;99506.15;1779502;80;22140;-69
2021/04/29 01:33:21;;;;;;;23.67;14.35;;;;;;;7.80;50.85;99508.16;1763479;80;21156;-69
2021/04/29 01:35:48;;;;;;;29.32;14.85;;;;;;;7.80;50.94;99507.34;1790139;79;21143;-69
2021/04/29 01:38:14;;;;;;;23.50;13.88;;;;;;;7.76;50.99;99508.18;1793700;79;21155;-69
2021/04/29 01:40:40;;;;;;;24.55;13.55;;;;;;;7.75;51.07;99508.34;1763005;80;21557;-69
2021/04/29 01:43:07;;;;;;;26.60;13.43;;;;;;;7.73;51.11;99507.70;1748250;80;21132;-69
2021/04/29 01:45:34;;;;;;;26.25;14.70;;;;;;;7.72;51.18;99508.69;1754575;81;21081;-69
2021/04/29 01:48:01;;;;;;;27.75;13.62;;;;;;;7.69;51.27;99506.39;1712539;83;21161;-69
2021/04/29 01:50:27;;;;;;;24.85;13.18;;;;;;;7.68;51.32;99504.73;1714745;83;21152;-69
2021/04/29 01:52:54;;;;;;;26.50;13.25;;;;;;;7.69;51.41;99503.73;1710978;83;21169;-69
2021/04/29 01:55:21;;;;;;;23.57;12.78;;;;;;;7.69;51.47;99507.72;1710955;83;21176;-69
2021/04/29 01:57:47;;;;;;;24.02;12.68;;;;;;;7.66;51.54;99506.74;1710880;83;21590;-69
2021/04/29 02:00:14;;;;;;;25.45;12.50;;;;;;;7.66;51.60;99505.41;1722976;83;21132;-69
2021/04/29 02:02:40;;;;;;;26.45;14.18;;;;;;;7.65;51.67;99507.73;1787996;80;21148;-69
2021/04/29 02:05:08;;;;;;;29.30;14.05;;;;;;;7.62;51.74;99500.95;1768969;80;21149;-69
2021/04/29 02:07:35;;;;;;;23.25;12.45;;;;;;;7.59;51.79;99503.13;1773166;80;21474;-69
2021/04/29 02:10:01;;;;;;;26.48;14.30;;;;;;;7.62;51.88;99497.47;1771691;80;21172;-69
2021/04/29 02:12:27;;;;;;;25.02;13.32;;;;;;;7.62;51.93;99497.47;1774286;80;21132;-69
2021/04/29 02:15:04;;;;;;;27.17;13.15;;;;;;;7.57;52.01;99501.12;1779400;80;21108;-69
2021/04/29 02:17:59;;;;;;;29.35;12.20;;;;;;;7.54;52.06;99495.18;1779510;80;21164;-69
2021/04/29 02:20:26;;;;;;;23.32;13.10;;;;;;;7.52;52.15;99490.56;1770341;80;21418;-68
2021/04/29 02:22:52;;;;;;;22.95;11.20;;;;;;;7.51;52.26;99482.27;1779539;80;21168;-69
2021/04/29 02:25:22;;;;;;;26.73;12.88;;;;;;;7.51;52.34;99482.76;1779547;80;21155;-71
2021/04/29 02:27:48;;;;;;;25.27;13.38;;;;;;;7.52;52.39;99484.42;1779550;80;21124;-69
2021/04/29 02:30:17;;;;;;;23.42;13.08;;;;;;;7.51;52.45;99482.27;1776379;80;21147;-69
2021/04/29 02:32:43;;;;;;;29.18;13.75;;;;;;;7.52;52.52;99479.95;1756885;81;22196;-69
2021/04/29 02:35:13;;;;;;;24.40;13.25;;;;;;;7.53;52.56;99480.25;1756549;81;21155;-69
2021/04/29 02:37:42;;;;;;;22.43;11.87;;;;;;;7.53;52.64;99484.23;1757057;80;21262;-69
2021/04/29 02:40:10;;;;;;;27.13;14.57;;;;;;;7.51;52.66;99475.63;1775834;80;21590;-69
2021/04/29 02:42:38;;;;;;;27.42;14.07;;;;;;;7.51;52.71;99475.63;1727678;82;21673;-69
2021/04/29 02:45:08;;;;;;;26.45;14.10;;;;;;;7.50;52.75;99469.98;1780910;80;21262;-69
2021/04/29 02:47:35;;;;;;;24.27;14.23;;;;;;;7.49;52.81;99477.61;1748806;82;21141;-69
2021/04/29 02:50:03;;;;;;;23.52;13.32;;;;;;;7.49;52.87;99465.67;1787202;80;21113;-69
2021/04/29 02:52:29;;;;;;;25.45;14.20;;;;;;;7.49;52.94;99471.50;1787913;80;21148;-69
2021/04/29 02:54:55;;;;;;;27.15;13.95;;;;;;;7.50;53.01;99468.66;1785800;80;21194;-69
2021/04/29 02:57:22;;;;;;;27.30;14.20;;;;;;;7.50;53.07;99465.18;1748884;80;23574;-69
2021/04/29 02:59:48;;;;;;;29.12;14.98;;;;;;;7.49;53.11;99456.91;1784124;80;21160;-69
2021/04/29 03:02:16;;;;;;;29.35;14.35;;;;;;;7.49;53.17;99460.89;1788098;80;21103;-69
2021/04/29 03:04:43;;;;;;;23.70;13.58;;;;;;;7.49;53.22;99454.27;1787903;80;21605;-69
2021/04/29 03:07:09;;;;;;;30.92;13.72;;;;;;;7.49;53.28;99457.72;1783532;80;21597;-69
2021/04/29 03:09:36;;;;;;;31.75;15.18;;;;;;;7.48;53.32;99456.09;1770651;80;21201;-69
2021/04/29 03:12:04;;;;;;;28.23;14.28;;;;;;;7.49;53.35;99449.76;1788057;80;21212;-69
2021/04/29 03:14:30;;;;;;;22.60;13.85;;;;;;;7.50;53.39;99451.42;1787796;80;21127;-69
2021/04/29 03:16:56;;;;;;;27.17;14.58;;;;;;;7.49;53.43;99445.78;1788190;80;21131;-69
2021/04/29 03:19:23;;;;;;;26.87;14.10;;;;;;;7.50;53.46;99449.27;1787261;80;21127;-69
2021/04/29 03:21:49;;;;;;;31.80;14.33;;;;;;;7.50;53.50;99448.77;1787606;80;21189;-69
2021/04/29 03:24:15;;;;;;;25.72;16.15;;;;;;;7.54;53.54;99451.41;1756884;81;21621;-69
2021/04/29 03:26:41;;;;;;;29.25;14.87;;;;;;;7.56;53.54;99457.05;1756669;81;21601;-69
2021/04/29 03:29:08;;;;;;;31.97;14.45;;;;;;;7.57;53.58;99452.87;1773246;80;21323;-69
2021/04/29 03:31:34;;;;;;;33.80;16.45;;;;;;;7.58;53.59;99456.36;1787915;80;21151;-69
2021/04/29 03:34:00;;;;;;;29.42;17.80;;;;;;;7.59;53.60;99449.56;1787670;80;21175;-69
2021/04/29 03:36:27;;;;;;;28.32;15.63;;;;;;;7.61;53.63;99457.34;1787165;80;21597;-69
2021/04/29 03:38:53;;;;;;;29.05;16.85;;;;;;;7.63;53.66;99454.02;1784171;80;21172;-69
2021/04/29 03:41:20;;;;;;;33.85;17.70;;;;;;;7.67;53.63;99453.48;1787954;80;21124;-69
2021/04/29 03:43:47;;;;;;;42.03;20.27;;;;;;;7.69;53.65;99447.52;1785175;80;21604;-69
2021/04/29 03:46:13;;;;;;;33.13;17.32;;;;;;;7.73;53.63;99444.84;1748901;82;21117;-70
2021/04/29 03:48:39;;;;;;;32.25;17.62;;;;;;;7.77;53.62;99443.50;1771166;80;21148;-70
2021/04/29 03:51:06;;;;;;;27.75;16.23;;;;;;;7.79;53.60;99444.63;1748806;82;21609;-69
2021/04/29 03:53:32;;;;;;;34.63;17.02;;;;;;;7.79;53.62;99439.32;1763258;80;21132;-70
2021/04/29 03:55:59;;;;;;;27.07;15.53;;;;;;;7.81;53.58;99438.66;1761312;80;21128;-70
2021/04/29 03:58:25;;;;;;;34.27;16.65;;;;;;;7.82;53.58;99437.64;1786351;80;21233;-70
2021/04/29 04:00:52;;;;;;;27.77;15.32;;;;;;;7.84;53.58;99425.03;1785208;80;21140;-70
2021/04/29 04:03:18;;;;;;;31.45;14.65;;;;;;;7.85;53.59;99418.20;1787978;80;21116;-70
2021/04/29 04:05:44;;;;;;;28.35;14.93;;;;;;;7.89;53.56;99412.88;1787915;80;21096;-70
2021/04/29 04:08:11;;;;;;;27.10;14.93;;;;;;;7.96;53.59;99416.97;1783716;80;21164;-69
2021/04/29 04:10:37;;;;;;;26.57;15.58;;;;;;;8.02;53.58;99413.63;1758925;80;21637;-70
2021/04/29 04:13:03;;;;;;;30.25;16.17;;;;;;;8.04;53.57;99414.27;1780628;80;21164;-70
2021/04/29 04:15:29;;;;;;;27.00;15.32;;;;;;;8.07;53.56;99413.91;1790714;79;21159;-70
2021/04/29 04:17:56;;;;;;;29.27;15.50;;;;;;;8.11;53.58;99407.23;1794307;79;21143;-70
2021/04/29 04:20:22;;;;;;;30.25;15.03;;;;;;;8.16;53.56;99408.03;1785777;79;21140;-70
2021/04/29 04:22:49;;;;;;;27.85;15.40;;;;;;;8.18;53.59;99392.24;1774515;79;21148;-70
2021/04/29 04:25:16;;;;;;;29.32;16.02;;;;;;;8.23;53.58;99399.18;1776735;79;21224;-70
2021/04/29 04:27:43;;;;;;;25.12;16.60;;;;;;;8.28;53.58;99397.30;1773528;79;21148;-70
2021/04/29 04:30:11;;;;;;;31.55;16.82;;;;;;;8.30;53.56;99400.11;1785725;79;21474;-70
2021/04/29 04:32:37;;;;;;;28.30;15.78;;;;;;;8.33;53.57;99395.80;1784538;80;21144;-70
2021/04/29 04:35:04;;;;;;;29.23;14.90;;;;;;;8.36;53.56;99399.42;1798114;79;21563;-71
2021/04/29 04:37:31;;;;;;;31.27;15.18;;;;;;;8.41;53.57;99393.05;1799903;79;21584;-70
2021/04/29 04:39:57;;;;;;;29.80;16.50;;;;;;;8.47;53.59;99394.17;1793678;79;21109;-70
2021/04/29 04:42:23;;;;;;;28.15;14.90;;;;;;;8.56;53.57;99396.22;1768697;79;21111;-70
2021/04/29 04:44:49;;;;;;;28.00;14.93;;;;;;;8.61;53.53;99385.89;1772678;79;21147;-70
2021/04/29 04:47:16;;;;;;;37.88;16.15;;;;;;;8.70;53.53;99392.76;1781104;79;22054;-70
2021/04/29 04:49:42;;;;;;;28.77;14.83;;;;;;;8.73;53.51;99397.20;1778026;79;21159;-70
2021/04/29 04:52:09;;;;;;;37.73;16.37;;;;;;;8.77;53.48;99388.36;1781139;79;21105;-70
2021/04/29 04:54:35;;;;;;;29.55;16.12;;;;;;;8.79;53.46;99389.85;1785568;79;21636;-71
2021/04/29 04:57:03;;;;;;;32.33;18.67;;;;;;;8.81;53.44;99386.99;1799758;79;21115;-70
2021/04/29 04:59:29;;;;;;;30.57;15.20;;;;;;;8.83;53.42;99391.11;1800092;79;21275;-71
2021/04/29 05:01:56;;;;;;;31.48;16.75;;;;;;;8.87;53.38;99391.56;1799672;79;21116;-70
2021/04/29 05:04:25;;;;;;;31.17;16.75;;;;;;;8.89;53.36;99377.60;1799882;79;21091;-70
2021/04/29 05:06:52;;;;;;;37.78;15.58;;;;;;;8.92;53.33;99382.55;1781411;79;21136;-71
2021/04/29 05:09:19;;;;;;;33.53;15.83;;;;;;;8.96;53.32;99382.00;1768474;81;21173;-70
2021/04/29 05:11:45;;;;;;;33.40;16.93;;;;;;;8.99;53.26;99374.98;1768325;81;21178;-70
2021/04/29 05:14:12;;;;;;;46.25;18.65;;;;;;;9.08;53.25;99375.69;1768080;81;21129;-70
2021/04/29 05:16:40;;;;;;;38.90;17.75;;;;;;;9.15;53.24;99375.27;1784043;79;21105;-70
2021/04/29 05:19:06;;;;;;;28.27;14.60;;;;;;;9.22;53.24;99373.52;1750689;80;21151;-70
2021/04/29 05:21:32;;;;;;;31.80;16.52;;;;;;;9.30;53.20;99358.78;1757843;80;21584;-69
2021/04/29 05:23:59;;;;;;;30.75;16.07;;;;;;;9.36;53.18;99365.18;1773206;80;21498;-70
2021/04/29 05:26:26;;;;;;;29.85;15.55;;;;;;;9.40;53.16;99363.30;1771684;80;21593;-70
2021/04/29 05:28:52;;;;;;;30.35;16.60;;;;;;;9.47;53.14;99357.55;1778986;80;21129;-70
2021/04/29 05:31:18;;;;;;;33.38;16.32;;;;;;;9.54;53.15;99356.28;1779680;80;21119;-71
2021/04/29 05:33:45;;;;;;;29.20;16.23;;;;;;;9.61;53.16;99349.69;1746945;80;21578;-70
2021/04/29 05:36:11;;;;;;;33.45;15.78;;;;;;;9.65;53.15;99349.12;1756689;80;21176;-71
2021/04/29 05:38:37;;;;;;;30.80;16.10;;;;;;;9.71;53.18;99344.91;1751233;82;21188;-71
2021/04/29 05:41:04;;;;;;;31.02;15.80;;;;;;;9.77;53.17;99349.45;1751042;81;21171;-71
2021/04/29 05:43:30;;;;;;;28.30;14.93;;;;;;;9.81;53.18;99345.41;1759272;80;21135;-71
2021/04/29 05:45:56;;;;;;;26.77;15.23;;;;;;;9.84;53.22;99347.68;1782647;80;21123;-71
2021/04/29 05:48:23;;;;;;;29.80;16.17;;;;;;;9.91;53.24;99341.91;1787197;80;21557;-71
2021/04/29 05:50:49;;;;;;;34.73;17.30;;;;;;;10.00;53.26;99340.74;1774577;80;21120;-71
2021/04/29 05:53:15;;;;;;;25.10;14.78;;;;;;;10.05;53.28;99331.69;1749459;80;21169;-71
2021/04/29 05:55:41;;;;;;;40.15;16.15;;;;;;;10.11;53.30;99333.56;1762053;81;21120;-71
2021/04/29 05:58:08;;;;;;;29.82;14.98;;;;;;;10.19;53.32;99338.80;1761505;81;21124;-71
2021/04/29 06:00:37;;;;;;;31.62;15.63;;;;;;;10.30;53.33;99340.11;1761838;80;21465;-71
2021/04/29 06:03:03;;;;;;;31.90;15.90;;;;;;;10.41;53.36;99332.38;1751960;80;21173;-71
2021/04/29 06:05:29;;;;;;;25.15;15.40;;;;;;;10.41;53.36;99332.38;1750165;80;21529;-71
2021/04/29 06:08:01;;;;;;;27.27;14.45;;;;;;;10.50;53.35;99345.88;1748607;82;21118;-71
2021/04/29 06:10:28;;;;;;;27.58;14.87;;;;;;;10.61;53.35;99347.69;1749049;80;21606;-71
2021/04/29 06:12:54;;;;;;;30.48;15.85;;;;;;;10.69;53.36;99347.54;1748663;82;22058;-71
2021/04/29 06:15:20;;;;;;;30.55;15.15;;;;;;;10.73;53.32;99352.80;1786815;80;21143;-71
2021/04/29 06:17:47;;;;;;;29.12;14.10;;;;;;;10.78;53.32;99349.02;1787532;80;21132;-71
2021/04/29 06:20:14;;;;;;;29.77;15.35;;;;;;;10.87;53.35;99346.52;1787841;80;21147;-71
2021/04/29 06:22:40;;;;;;;27.70;16.10;;;;;;;10.97;53.34;99345.64;1787782;80;21463;-71
2021/04/29 06:25:08;;;;;;;28.27;16.48;;;;;;;11.01;53.32;99350.90;1766241;80;21237;-71
2021/04/29 06:27:35;;;;;;;33.18;14.50;;;;;;;11.01;53.33;99344.23;1787716;80;21615;-71
2021/04/29 06:30:01;;;;;;;25.10;14.75;;;;;;;11.05;53.31;99341.45;1788152;80;21148;-71
2021/04/29 06:32:27;;;;;;;25.30;14.13;;;;;;;11.07;53.35;99346.59;1770223;80;21148;-71
2021/04/29 06:34:54;;;;;;;26.45;14.35;;;;;;;11.08;53.34;99345.08;1784162;80;21117;-71
2021/04/29 06:37:20;;;;;;;28.20;16.73;;;;;;;11.09;53.35;99338.70;1776150;80;21203;-71
2021/04/29 06:39:47;;;;;;;27.65;15.70;;;;;;;11.10;53.36;99327.02;1756846;81;21166;-71
2021/04/29 06:42:14;;;;;;;28.10;14.40;;;;;;;11.14;53.37;99325.59;1757486;80;21596;-71
2021/04/29 06:44:41;;;;;;;38.95;18.90;;;;;;;11.15;53.38;99325.09;1756861;81;21183;-71
2021/04/29 06:47:08;;;;;;;28.67;15.83;;;;;;;11.24;53.43;99317.20;1765926;80;21163;-71
2021/04/29 06:49:35;;;;;;;45.55;18.07;;;;;;;11.38;53.46;99314.37;1778007;80;21230;-71
2021/04/29 06:52:01;;;;;;;31.87;15.78;;;;;;;11.52;53.45;99313.89;1783514;80;21112;-71
2021/04/29 06:54:27;;;;;;;32.58;17.77;;;;;;;11.69;53.41;99315.66;1769832;80;21569;-72
2021/04/29 06:56:54;;;;;;;31.85;16.95;;;;;;;11.89;53.38;99317.89;1771007;80;21167;-71
2021/04/29 06:59:20;;;;;;;36.05;18.40;;;;;;;12.10;53.31;99313.68;1787991;80;21150;-72
2021/04/29 07:01:47;;;;;;;34.25;17.12;;;;;;;12.32;53.22;99309.73;1787672;80;21189;-71
2021/04/29 07:04:13;;;;;;;29.55;15.32;;;;;;;12.45;53.14;99319.06;1787563;80;21136;-72
2021/04/29 07:06:39;;;;;;;26.68;14.40;;;;;;;12.65;53.07;99324.91;1767170;80;21545;-72
2021/04/29 07:09:06;;;;;;;29.65;14.55;;;;;;;12.76;53.01;99330.95;1776638;80;21159;-72
2021/04/29 07:11:32;;;;;;;29.10;16.12;;;;;;;12.78;52.94;99330.21;1780964;80;21565;-71
2021/04/29 07:14:00;;;;;;;31.65;16.85;;;;;;;12.83;52.92;99334.43;1750536;80;21216;-72
2021/04/29 07:16:26;;;;;;;27.30;15.15;;;;;;;12.84;52.90;99337.42;1750806;81;21148;-72
2021/04/29 07:18:53;;;;;;;26.60;16.10;;;;;;;12.79;52.87;99335.88;1747261;82;21121;-72
2021/04/29 07:21:19;;;;;;;30.65;18.32;;;;;;;12.71;52.86;99342.78;1750565;80;21156;-72
2021/04/29 07:23:47;;;;;;;27.70;15.93;;;;;;;12.65;52.89;99341.78;1770329;80;21157;-71
2021/04/29 07:26:15;;;;;;;29.20;17.80;;;;;;;12.61;52.90;99347.75;1753025;81;21205;-71
2021/04/29 07:28:42;;;;;;;37.75;17.85;;;;;;;12.53;52.96;99345.59;1775822;80;21131;-71
2021/04/29 07:31:08;;;;;;;35.55;20.02;;;;;;;12.48;53.00;99345.41;1784211;80;21141;-71
2021/04/29 07:33:35;;;;;;;32.05;16.52;;;;;;;12.39;53.08;99347.16;1784025;79;21159;-71
2021/04/29 07:36:01;;;;;;;45.75;22.75;;;;;;;12.33;53.16;99338.13;1784295;80;21104;-71
2021/04/29 07:38:27;;;;;;;36.63;17.20;;;;;;;12.35;53.28;99336.05;1772625;80;21193;-72
2021/04/29 07:40:54;;;;;;;34.83;17.10;;;;;;;12.38;53.35;99339.67;1761645;80;21166;-72
2021/04/29 07:43:20;;;;;;;25.77;15.18;;;;;;;12.41;53.44;99335.24;1759736;81;21152;-72
2021/04/29 07:45:46;;;;;;;23.92;15.70;;;;;;;12.49;53.51;99340.86;1759352;80;21122;-72
2021/04/29 07:48:13;;;;;;;27.32;15.45;;;;;;;12.50;53.59;99336.66;1765403;80;21140;-72
2021/04/29 07:50:39;;;;;;;31.17;16.50;;;;;;;12.57;53.67;99340.66;1752487;81;21428;-72
2021/04/29 07:53:05;;;;;;;27.20;15.63;;;;;;;12.61;53.72;99342.39;1768642;80;21671;-71
2021/04/29 07:55:32;;;;;;;39.80;16.37;;;;;;;12.71;53.77;99337.44;1783547;80;21632;-71
2021/04/29 07:57:58;;;;;;;25.40;14.58;;;;;;;12.79;53.83;99346.06;1772708;80;21112;-71
2021/04/29 08:00:24;;;;;;;35.75;19.20;;;;;;;12.83;53.88;99363.86;1752890;80;21134;-72
2021/04/29 08:02:50;;;;;;;24.32;14.33;;;;;;;12.90;53.90;99376.70;1769787;80;21246;-72
2021/04/29 08:05:17;;;;;;;26.68;15.00;;;;;;;13.02;53.94;99381.70;1765214;80;21195;-71
2021/04/29 08:07:43;;;;;;;24.18;13.93;;;;;;;13.13;53.95;99379.75;1743700;81;21184;-72
2021/04/29 08:10:11;;;;;;;22.85;13.95;;;;;;;13.26;53.92;99382.40;1766854;80;21227;-71
2021/04/29 08:12:37;;;;;;;30.25;15.83;;;;;;;13.28;53.89;99374.14;1721340;82;21143;-71
2021/04/29 08:15:05;;;;;;;23.98;14.20;;;;;;;13.27;53.82;99378.67;1755116;79;21560;-71
2021/04/29 08:17:31;;;;;;;23.60;14.40;;;;;;;13.23;53.84;99376.65;1761779;79;21153;-71
2021/04/29 08:19:57;;;;;;;28.55;16.87;;;;;;;13.14;53.84;99369.87;1768798;80;21132;-71
2021/04/29 08:22:25;;;;;;;21.00;13.95;;;;;;;13.21;53.85;99367.48;1789775;78;21175;-71
2021/04/29 08:24:53;;;;;;;21.48;13.70;;;;;;;13.37;53.85;99366.98;1786673;80;21148;-72
2021/04/29 08:27:19;;;;;;;20.85;13.95;;;;;;;13.56;53.81;99373.28;1781451;80;21263;-71
2021/04/29 08:29:46;;;;;;;21.52;14.18;;;;;;;13.70;53.78;99365.48;1769141;80;21636;-72
2021/04/29 08:32:12;;;;;;;28.40;14.78;;;;;;;13.89;53.73;99367.74;1786638;80;21171;-71
2021/04/29 08:34:38;;;;;;;26.02;14.50;;;;;;;14.03;53.64;99366.61;1762278;80;21197;-71
2021/04/29 08:37:04;;;;;;;25.12;14.15;;;;;;;14.19;53.58;99370.09;1755902;80;21218;-71
2021/04/29 08:39:31;;;;;;;25.30;14.75;;;;;;;14.41;53.54;99368.70;1755529;81;21224;-71
2021/04/29 08:41:57;;;;;;;24.80;13.18;;;;;;;14.57;53.45;99369.99;1755298;81;21164;-71
2021/04/29 08:44:23;;;;;;;26.40;14.65;;;;;;;14.66;53.34;99362.48;1755640;81;21664;-71
2021/04/29 08:46:50;;;;;;;24.70;13.45;;;;;;;14.70;53.27;99363.70;1780096;80;21190;-72
2021/04/29 08:49:16;;;;;;;25.72;14.53;;;;;;;14.79;53.27;99369.06;1786897;80;21608;-71
2021/04/29 08:51:44;;;;;;;21.33;12.98;;;;;;;14.87;53.22;99360.20;1786779;80;21201;-71
2021/04/29 08:54:10;;;;;;;22.32;12.43;;;;;;;14.97;53.32;99354.31;1784293;80;21605;-72
2021/04/29 08:56:37;;;;;;;16.48;11.55;;;;;;;15.06;53.06;99354.30;1767395;80;21525;-72
2021/04/29 08:59:03;;;;;;;22.22;13.15;;;;;;;15.21;52.99;99353.92;1809427;78;21151;-72
2021/04/29 09:01:43;;;;;;;21.57;16.17;;;;;;;15.30;52.94;99343.19;1771198;78;21209;-72
2021/04/29 09:04:15;;;;;;;27.62;13.43;;;;;;;15.36;52.90;99337.72;1755609;81;21550;-72
2021/04/29 09:06:44;;;;;;;22.65;13.60;;;;;;;15.35;52.84;99328.02;1755279;81;21742;-72
2021/04/29 09:09:13;;;;;;;23.97;13.00;;;;;;;15.34;52.81;99341.69;1762562;78;21175;-71
2021/04/29 09:11:54;;;;;;;21.33;12.88;;;;;;;15.41;52.76;99337.84;1763801;78;21151;-72
2021/04/29 09:14:34;;;;;;;21.42;11.68;;;;;;;15.48;52.66;99344.50;1759637;80;21207;-72
2021/04/29 09:17:00;;;;;;;18.12;12.68;;;;;;;15.64;52.55;99337.16;1767609;80;21414;-72
2021/04/29 09:19:29;;;;;;;21.82;12.78;;;;;;;15.92;52.48;99339.23;1785879;80;21211;-72
2021/04/29 09:21:56;;;;;;;19.02;11.78;;;;;;;16.18;52.30;99342.03;1786854;80;21132;-72
2021/04/29 09:24:40;;;;;;;18.82;12.47;;;;;;;16.30;52.20;99346.37;1774551;80;21195;-72
2021/04/29 09:27:19;;;;;;;19.42;12.30;;;;;;;16.42;52.04;99349.08;1772675;80;21136;-72
2021/04/29 09:30:00;;;;;;;19.95;12.13;;;;;;;16.38;51.71;99350.06;1763819;80;21198;-72
2021/04/29 09:32:32;;;;;;;19.45;11.78;;;;;;;16.38;51.71;99350.06;1755454;81;21210;-72
2021/04/29 09:34:59;;;;;;;21.52;10.53;;;;;;;16.17;51.57;99351.97;1755516;81;21171;-72
2021/04/29 09:37:34;;;;;;;14.28;10.58;;;;;;;16.04;51.51;99347.33;1775530;80;21167;-71
2021/04/29 09:40:15;;;;;;;51.37;13.18;;;;;;;15.90;51.48;99349.41;1774477;80;21209;-72
2021/04/29 09:42:44;;;;;;;20.45;11.60;;;;;;;15.84;51.53;99351.65;1780966;80;21562;-71
2021/04/29 09:45:18;;;;;;;18.98;12.00;;;;;;;15.73;51.53;99350.56;1752936;80;21191;-72
2021/04/29 09:48:06;;;;;;;17.85;12.13;;;;;;;15.72;51.61;99349.47;1871747;76;28346;-71
2021/04/29 09:50:39;;;;;;;20.75;12.60;;;;;;;15.72;51.64;99347.59;1856417;77;21142;-71
2021/04/29 09:53:14;;;;;;;18.75;12.40;;;;;;;15.68;51.67;99350.45;1855235;77;21678;-71
2021/04/29 09:55:44;;;;;;;21.85;12.60;;;;;;;15.55;51.64;99351.16;1825918;77;21201;-72
2021/04/29 09:58:16;;;;;;;28.73;14.33;;;;;;;15.43;51.72;99353.75;1822860;78;21019;-71
2021/04/29 10:00:48;;;;;;;23.42;14.50;;;;;;;15.33;51.78;99359.67;1814089;78;21581;-70
2021/04/29 10:03:16;;;;;;;25.62;13.55;;;;;;;15.30;51.79;99352.06;1815804;78;21183;-71
2021/04/29 10:05:42;;;;;;;23.45;12.10;;;;;;;15.37;51.93;99356.83;1806102;78;21606;-71
2021/04/29 10:08:11;;;;;;;20.50;11.68;;;;;;;15.46;51.96;99345.23;1801478;78;21190;-71
2021/04/29 10:10:39;;;;;;;23.22;13.10;;;;;;;15.49;52.04;99342.94;1822661;78;21000;-72
2021/04/29 10:13:06;;;;;;;22.77;13.50;;;;;;;15.49;52.13;99348.31;1803958;78;21182;-71
2021/04/29 10:15:35;;;;;;;21.93;12.63;;;;;;;15.46;52.19;99344.71;1804915;78;21552;-71
2021/04/29 10:18:01;;;;;;;21.62;13.13;;;;;;;15.48;52.31;99343.98;1802637;78;21253;-71
2021/04/29 10:20:30;;;;;;;25.10;12.23;;;;;;;15.39;52.32;99339.95;1816920;77;21126;-71
2021/04/29 10:22:59;;;;;;;66.35;31.90;;;;;;;15.37;52.41;99346.61;1823039;78;21174;-70
2021/04/29 10:25:29;;;;;;;68.35;35.25;;;;;;;15.33;52.45;99350.27;1823077;77;21709;-72
2021/04/29 10:27:56;;;;;;;;;;;;;;;15.31;52.52;99342.94;1823231;77;21576;-72
2021/04/29 10:30:38;;;;;;;27.77;15.70;;;;;;;15.28;52.55;99343.91;1821487;78;21213;-72
2021/04/29 10:33:19;;;;;;;24.70;15.68;;;;;;;15.25;52.62;99347.88;1821564;78;21597;-69
2021/04/29 10:35:57;;;;;;;20.52;13.45;;;;;;;15.37;52.62;99345.27;1804798;78;21158;-69
2021/04/29 10:38:33;;;;;;;19.50;12.90;;;;;;;15.55;52.67;99343.89;1815143;78;21091;-70
2021/04/29 10:41:02;;;;;;;23.52;15.75;;;;;;;15.72;52.72;99341.40;1815453;78;21126;-72
2021/04/29 10:43:36;;;;;;;21.07;13.90;;;;;;;15.89;52.80;99341.86;1822335;77;21858;-72
2021/04/29 10:46:05;;;;;;;26.73;14.10;;;;;;;16.10;52.84;99337.81;1820620;77;21616;-72
2021/04/29 10:48:34;;;;;;;27.70;13.62;;;;;;;16.42;52.94;99328.38;1817587;78;21211;-72
2021/04/29 10:51:14;;;;;;;20.40;12.85;;;;;;;16.95;52.96;99333.62;1779484;79;23209;-71
2021/04/29 10:53:41;;;;;;;20.45;14.40;;;;;;;17.24;52.82;99328.29;1764963;79;21166;-70
2021/04/29 10:56:16;;;;;;;21.42;13.45;;;;;;;17.34;52.58;99325.27;1762769;81;21252;-71
2021/04/29 10:58:42;;;;;;;23.00;12.65;;;;;;;17.41;52.40;99320.55;1727568;81;21179;-70
2021/04/29 11:01:14;;;;;;;29.32;16.12;;;;;;;17.48;52.25;99313.14;1760691;81;21159;-71
2021/04/29 11:03:51;;;;;;;23.05;12.63;;;;;;;17.69;52.08;99313.53;1759339;80;21148;-71
2021/04/29 11:06:22;;;;;;;19.75;11.85;;;;;;;17.71;51.81;99309.53;1760828;81;21127;-71
2021/04/29 11:08:50;;;;;;;20.72;11.85;;;;;;;17.68;51.66;99319.45;1760456;81;21247;-71
2021/04/29 11:11:35;;;;;;;19.10;12.03;;;;;;;17.63;51.46;99319.88;1761596;81;21128;-71
2021/04/29 11:14:09;;;;;;;20.57;10.82;;;;;;;17.75;51.46;99322.00;1763576;81;21421;-72
2021/04/29 11:16:52;;;;;;;19.62;11.93;;;;;;;17.84;51.23;99323.22;1761619;80;21167;-71
2021/04/29 11:19:59;;;;;;;18.17;11.28;;;;;;;17.90;51.06;99316.36;1750158;81;21131;-71
2021/04/29 11:22:33;;;;;;;18.27;12.13;;;;;;;17.85;50.91;99316.78;1634284;87;21258;-71
2021/04/29 11:24:59;;;;;;;18.07;11.65;;;;;;;17.72;50.80;99314.39;1648921;87;21236;-71
2021/04/29 11:27:30;;;;;;;22.60;12.20;;;;;;;17.86;50.80;99317.08;1659922;86;21187;-71